Medford, Indiana
Current Conditions -  °F | °C
As of 4:53 PM on Friday 28 Nov 2014 (Local Time) from KMIE Reporting Station
Broken Clouds Broken Clouds  
Wind Chill: 23°   Ceiling: 12000
Heat Index: 32°   Visibility: 10mi
Dew Point: 19°   Wind: 13mph
Humidity: 59%   Direction: 170°S
Pressure: 30.11"   Gusts: NA
Location:  40.1286°N, 85.3767°W
Report Text: KMIE 282153Z 17011KT 10SM BKN120 00/M07 A3011 RMK AO2 SLP202 T00001072
Loading
Personal Weather Stations






























Interactive Weather Map New forecast layout! Learn more

10-Day Weather Forecast

Advertisements
Track Severe Weather on mobile